Hlavní strana
METAR-TAF:

METAR-TAF

Letiště :

Jämsä, Finsko

zeměpisná šířka: 61-51N, zeměpisná délka: 024-48E, výška: 143 m

Aktuální stav počasí

Zpráva byla vytvořena před 17 minutami, v 04:20 UTC
Jižní vítr 8 kt
Teplota 2°C
Vlhkost vzduchu 100%
Tlak 998 hPa
Viditelnost: 1300 m
Zataženo ve výšce 300 ft
kouřmo

METAR: EFHA 190420Z AUTO 19008KT 1300 BR OVC003 02/02 Q0998

Čas: 06:37 (04:37 UTC)

Předpověď počasí

Zpráva byla vytvořena před 2 hodinami a 6 minutami, v 02:31 UTC
Předpověď platná od 19 v 03 UTC do 19 v 12 UTC
Jihozápadní vítr 9 kt
Viditelnost: 3000 m
Oblačno až skoro zataženo ve výšce 300 ft
kouřmo
Dočasný
od 19 v 03 UTC do 19 v 06 UTC
Viditelnost: 2000 m
Dočasný
od 19 v 06 UTC do 19 v 12 UTC
Viditelnost: 2000 m
Oblačno až skoro zataženo ve výšce 100 ft
mrholení

TAF: EFHA 190231Z 1903/1912 22009KT 3000 BR BKN003 TEMPO 1903/1906 2000 TEMPO 1906/1912 2000 DZ BKN001

Stav a předpovědi počasí z více než 4 000 letišť (zprávy METAR a TAF).

Červené a žluté tečky na mapě představují dostupné meteorologické stanice.

Když kurzor umístíte na tečku, zobrazí se název stanice.

Pak kliknutím zobrazíte stav a předpověď počasí.

Chcete-li změnit mapu, kliknutím na zelené tlačítko se znaménkem +mapu přiblížíte, kliknutím na zelené tlačítko se znaménkem – mapu oddálíte a kliknutím na zelené šipky přejdete na sousední mapy.


METAR-TAF: